sensor_id;sensor_type;location;lat;lon;timestamp;P1;durP1;ratioP1;P2;durP2;ratioP2
77748;SDS011;66938;52.084;5.228;2023-06-24T00:01:00;9.5;;;8.6;;
77748;SDS011;66938;52.084;5.228;2023-06-24T00:04:12;9.4;;;8.6;;
77748;SDS011;66938;52.084;5.228;2023-06-24T00:05:49;9.4;;;8.5;;
77748;SDS011;66938;52.084;5.228;2023-06-24T00:07:25;9.1;;;8.31;;
77748;SDS011;66938;52.084;5.228;2023-06-24T00:10:37;8.81;;;7.9;;
77748;SDS011;66938;52.084;5.228;2023-06-24T00:12:13;8.31;;;7.5;;
77748;SDS011;66938;52.084;5.228;2023-06-24T00:13:49;9.1;;;7.8;;
77748;SDS011;66938;52.084;5.228;2023-06-24T00:17:02;9.0;;;8.1;;
77748;SDS011;66938;52.084;5.228;2023-06-24T00:18:38;9.0;;;8.1;;
77748;SDS011;66938;52.084;5.228;2023-06-24T00:20:14;9.4;;;8.5;;
77748;SDS011;66938;52.084;5.228;2023-06-24T00:23:28;9.31;;;8.5;;
77748;SDS011;66938;52.084;5.228;2023-06-24T00:25:05;8.6;;;7.8;;
77748;SDS011;66938;52.084;5.228;2023-06-24T00:26:42;8.9;;;8.1;;
77748;SDS011;66938;52.084;5.228;2023-06-24T00:28:18;8.9;;;8.0;;
77748;SDS011;66938;52.084;5.228;2023-06-24T00:31:31;8.9;;;8.0;;
77748;SDS011;66938;52.084;5.228;2023-06-24T00:33:07;9.4;;;8.4;;
77748;SDS011;66938;52.084;5.228;2023-06-24T00:34:43;8.71;;;7.9;;
77748;SDS011;66938;52.084;5.228;2023-06-24T00:37:56;9.71;;;8.71;;
77748;SDS011;66938;52.084;5.228;2023-06-24T00:39:32;9.0;;;8.2;;
77748;SDS011;66938;52.084;5.228;2023-06-24T00:41:09;8.81;;;8.0;;
77748;SDS011;66938;52.084;5.228;2023-06-24T00:42:46;9.5;;;8.6;;
77748;SDS011;66938;52.084;5.228;2023-06-24T00:45:59;9.9;;;9.0;;
77748;SDS011;66938;52.084;5.228;2023-06-24T00:47:36;9.4;;;8.5;;
77748;SDS011;66938;52.084;5.228;2023-06-24T00:49:12;11.0;;;9.9;;
77748;SDS011;66938;52.084;5.228;2023-06-24T00:52:24;9.21;;;8.4;;
77748;SDS011;66938;52.084;5.228;2023-06-24T00:54:01;9.9;;;9.0;;
77748;SDS011;66938;52.084;5.228;2023-06-24T00:55:37;10.0;;;9.0;;
77748;SDS011;66938;52.084;5.228;2023-06-24T00:58:51;12.1;;;11.0;;
77748;SDS011;66938;52.084;5.228;2023-06-24T01:00:28;9.81;;;8.9;;
77748;SDS011;66938;52.084;5.228;2023-06-24T01:02:04;10.3;;;9.31;;
77748;SDS011;66938;52.084;5.228;2023-06-24T01:05:17;10.21;;;9.31;;
77748;SDS011;66938;52.084;5.228;2023-06-24T01:06:53;10.8;;;9.71;;
77748;SDS011;66938;52.084;5.228;2023-06-24T01:08:31;10.21;;;9.31;;
77748;SDS011;66938;52.084;5.228;2023-06-24T01:10:08;10.4;;;9.4;;
77748;SDS011;66938;52.084;5.228;2023-06-24T01:13:21;10.21;;;9.21;;
77748;SDS011;66938;52.084;5.228;2023-06-24T01:14:58;11.1;;;10.1;;
77748;SDS011;66938;52.084;5.228;2023-06-24T01:16:36;11.3;;;10.21;;
77748;SDS011;66938;52.084;5.228;2023-06-24T01:18:32;11.4;;;10.4;;
77748;SDS011;66938;52.084;5.228;2023-06-24T01:22:03;11.2;;;10.1;;
77748;SDS011;66938;52.084;5.228;2023-06-24T01:24:06;10.4;;;9.5;;
77748;SDS011;66938;52.084;5.228;2023-06-24T01:26:38;10.5;;;9.6;;
77748;SDS011;66938;52.084;5.228;2023-06-24T01:30:04;11.2;;;10.1;;
77748;SDS011;66938;52.084;5.228;2023-06-24T01:31:53;10.5;;;9.5;;
77748;SDS011;66938;52.084;5.228;2023-06-24T01:33:36;11.2;;;10.1;;
77748;SDS011;66938;52.084;5.228;2023-06-24T01:35:19;11.8;;;10.7;;
77748;SDS011;66938;52.084;5.228;2023-06-24T01:38:55;11.5;;;10.5;;
77748;SDS011;66938;52.084;5.228;2023-06-24T01:40:40;11.1;;;10.1;;
77748;SDS011;66938;52.084;5.228;2023-06-24T01:42:21;12.0;;;10.8;;
77748;SDS011;66938;52.084;5.228;2023-06-24T01:43:58;12.3;;;11.1;;
77748;SDS011;66938;52.084;5.228;2023-06-24T01:45:36;11.7;;;10.7;;
77748;SDS011;66938;52.084;5.228;2023-06-24T01:48:58;12.1;;;10.9;;
77748;SDS011;66938;52.084;5.228;2023-06-24T01:50:37;12.1;;;11.0;;
77748;SDS011;66938;52.084;5.228;2023-06-24T01:52:18;12.5;;;11.3;;
77748;SDS011;66938;52.084;5.228;2023-06-24T01:54:00;12.7;;;11.4;;
77748;SDS011;66938;52.084;5.228;2023-06-24T01:57:17;12.1;;;11.0;;
77748;SDS011;66938;52.084;5.228;2023-06-24T01:58:57;12.2;;;11.1;;
77748;SDS011;66938;52.084;5.228;2023-06-24T02:00:35;12.6;;;11.4;;
77748;SDS011;66938;52.084;5.228;2023-06-24T02:03:50;12.8;;;11.5;;
77748;SDS011;66938;52.084;5.228;2023-06-24T02:05:29;12.8;;;11.6;;
77748;SDS011;66938;52.084;5.228;2023-06-24T02:07:08;12.9;;;11.7;;
77748;SDS011;66938;52.084;5.228;2023-06-24T02:08:47;12.2;;;11.0;;
77748;SDS011;66938;52.084;5.228;2023-06-24T02:12:05;14.3;;;12.9;;
77748;SDS011;66938;52.084;5.228;2023-06-24T02:13:43;14.1;;;12.8;;
77748;SDS011;66938;52.084;5.228;2023-06-24T02:15:20;13.2;;;11.8;;
77748;SDS011;66938;52.084;5.228;2023-06-24T02:16:58;13.2;;;12.0;;
77748;SDS011;66938;52.084;5.228;2023-06-24T02:20:15;13.9;;;12.6;;
77748;SDS011;66938;52.084;5.228;2023-06-24T02:21:53;13.1;;;12.0;;
77748;SDS011;66938;52.084;5.228;2023-06-24T02:23:32;14.2;;;12.8;;
77748;SDS011;66938;52.084;5.228;2023-06-24T02:26:48;13.3;;;12.1;;
77748;SDS011;66938;52.084;5.228;2023-06-24T02:28:26;13.8;;;12.5;;
77748;SDS011;66938;52.084;5.228;2023-06-24T02:30:04;14.8;;;13.4;;
77748;SDS011;66938;52.084;5.228;2023-06-24T02:31:43;13.3;;;12.0;;
77748;SDS011;66938;52.084;5.228;2023-06-24T02:34:56;13.8;;;12.5;;
77748;SDS011;66938;52.084;5.228;2023-06-24T02:36:33;14.4;;;13.0;;
77748;SDS011;66938;52.084;5.228;2023-06-24T02:38:09;14.1;;;12.9;;
77748;SDS011;66938;52.084;5.228;2023-06-24T02:41:21;13.8;;;12.6;;
77748;SDS011;66938;52.084;5.228;2023-06-24T02:42:57;13.7;;;12.5;;
77748;SDS011;66938;52.084;5.228;2023-06-24T02:44:35;13.9;;;12.6;;
77748;SDS011;66938;52.084;5.228;2023-06-24T02:46:11;14.0;;;12.6;;
77748;SDS011;66938;52.084;5.228;2023-06-24T02:49:28;14.0;;;12.6;;
77748;SDS011;66938;52.084;5.228;2023-06-24T02:51:05;15.3;;;13.9;;
77748;SDS011;66938;52.084;5.228;2023-06-24T02:52:44;14.3;;;12.9;;
77748;SDS011;66938;52.084;5.228;2023-06-24T02:55:57;14.2;;;12.8;;
77748;SDS011;66938;52.084;5.228;2023-06-24T02:57:35;14.3;;;12.8;;
77748;SDS011;66938;52.084;5.228;2023-06-24T02:59:12;15.4;;;13.9;;
77748;SDS011;66938;52.084;5.228;2023-06-24T03:02:24;14.4;;;13.0;;
77748;SDS011;66938;52.084;5.228;2023-06-24T03:04:01;15.0;;;13.6;;
77748;SDS011;66938;52.084;5.228;2023-06-24T03:05:37;14.1;;;12.8;;
77748;SDS011;66938;52.084;5.228;2023-06-24T03:07:14;14.8;;;13.3;;
77748;SDS011;66938;52.084;5.228;2023-06-24T03:10:27;15.3;;;13.8;;
77748;SDS011;66938;52.084;5.228;2023-06-24T03:12:05;14.0;;;12.7;;
77748;SDS011;66938;52.084;5.228;2023-06-24T03:13:42;15.8;;;14.3;;
77748;SDS011;66938;52.084;5.228;2023-06-24T03:16:55;14.6;;;13.3;;
77748;SDS011;66938;52.084;5.228;2023-06-24T03:18:31;15.3;;;13.8;;
77748;SDS011;66938;52.084;5.228;2023-06-24T03:20:08;15.4;;;13.9;;
77748;SDS011;66938;52.084;5.228;2023-06-24T03:21:44;15.9;;;14.2;;
77748;SDS011;66938;52.084;5.228;2023-06-24T03:24:57;16.0;;;14.5;;
77748;SDS011;66938;52.084;5.228;2023-06-24T03:26:33;15.6;;;14.1;;
77748;SDS011;66938;52.084;5.228;2023-06-24T03:28:11;16.4;;;14.9;;
77748;SDS011;66938;52.084;5.228;2023-06-24T03:31:23;16.11;;;14.5;;
77748;SDS011;66938;52.084;5.228;2023-06-24T03:32:59;16.3;;;14.8;;
77748;SDS011;66938;52.084;5.228;2023-06-24T03:34:36;16.11;;;14.5;;
77748;SDS011;66938;52.084;5.228;2023-06-24T03:37:48;15.5;;;14.0;;
77748;SDS011;66938;52.084;5.228;2023-06-24T03:39:25;14.5;;;13.1;;
77748;SDS011;66938;52.084;5.228;2023-06-24T03:41:01;14.3;;;13.0;;
77748;SDS011;66938;52.084;5.228;2023-06-24T03:44:14;13.8;;;12.4;;
77748;SDS011;66938;52.084;5.228;2023-06-24T03:45:50;14.4;;;13.0;;
77748;SDS011;66938;52.084;5.228;2023-06-24T03:47:27;15.3;;;13.9;;
77748;SDS011;66938;52.084;5.228;2023-06-24T03:49:03;14.3;;;13.0;;
77748;SDS011;66938;52.084;5.228;2023-06-24T03:52:16;15.4;;;14.0;;
77748;SDS011;66938;52.084;5.228;2023-06-24T03:53:52;15.1;;;13.7;;
77748;SDS011;66938;52.084;5.228;2023-06-24T03:55:28;14.5;;;13.2;;
77748;SDS011;66938;52.084;5.228;2023-06-24T03:58:42;14.5;;;13.2;;
77748;SDS011;66938;52.084;5.228;2023-06-24T04:00:18;14.6;;;13.3;;
77748;SDS011;66938;52.084;5.228;2023-06-24T04:01:54;16.0;;;14.4;;
77748;SDS011;66938;52.084;5.228;2023-06-24T04:05:06;15.9;;;14.4;;
77748;SDS011;66938;52.084;5.228;2023-06-24T04:06:42;16.61;;;14.9;;
77748;SDS011;66938;52.084;5.228;2023-06-24T04:08:19;16.3;;;14.8;;
77748;SDS011;66938;52.084;5.228;2023-06-24T04:09:55;16.11;;;14.6;;
77748;SDS011;66938;52.084;5.228;2023-06-24T04:13:08;15.8;;;14.2;;
77748;SDS011;66938;52.084;5.228;2023-06-24T04:14:44;16.4;;;14.8;;
77748;SDS011;66938;52.084;5.228;2023-06-24T04:16:20;18.3;;;16.4;;
77748;SDS011;66938;52.084;5.228;2023-06-24T04:19:32;15.8;;;14.3;;
77748;SDS011;66938;52.084;5.228;2023-06-24T04:21:09;15.4;;;13.9;;
77748;SDS011;66938;52.084;5.228;2023-06-24T04:22:45;15.6;;;14.1;;
77748;SDS011;66938;52.084;5.228;2023-06-24T04:25:57;15.5;;;14.0;;
77748;SDS011;66938;52.084;5.228;2023-06-24T04:27:33;15.4;;;13.9;;
77748;SDS011;66938;52.084;5.228;2023-06-24T04:29:11;18.91;;;15.7;;
77748;SDS011;66938;52.084;5.228;2023-06-24T04:30:47;15.5;;;14.0;;
77748;SDS011;66938;52.084;5.228;2023-06-24T04:33:59;15.2;;;13.7;;
77748;SDS011;66938;52.084;5.228;2023-06-24T04:35:35;15.5;;;14.0;;
77748;SDS011;66938;52.084;5.228;2023-06-24T04:37:11;15.1;;;13.7;;
77748;SDS011;66938;52.084;5.228;2023-06-24T04:40:24;15.2;;;13.8;;
77748;SDS011;66938;52.084;5.228;2023-06-24T04:41:59;15.2;;;13.6;;
77748;SDS011;66938;52.084;5.228;2023-06-24T04:43:36;15.7;;;14.1;;
77748;SDS011;66938;52.084;5.228;2023-06-24T04:46:48;13.8;;;12.6;;
77748;SDS011;66938;52.084;5.228;2023-06-24T04:48:24;13.9;;;12.6;;
77748;SDS011;66938;52.084;5.228;2023-06-24T04:50:00;14.4;;;12.9;;
77748;SDS011;66938;52.084;5.228;2023-06-24T04:53:12;13.9;;;12.6;;
77748;SDS011;66938;52.084;5.228;2023-06-24T04:54:49;13.8;;;12.4;;
77748;SDS011;66938;52.084;5.228;2023-06-24T04:56:25;14.0;;;12.3;;
77748;SDS011;66938;52.084;5.228;2023-06-24T04:58:01;12.7;;;11.5;;
77748;SDS011;66938;52.084;5.228;2023-06-24T05:01:13;13.4;;;12.0;;
77748;SDS011;66938;52.084;5.228;2023-06-24T05:02:49;14.1;;;12.6;;
77748;SDS011;66938;52.084;5.228;2023-06-24T05:04:25;12.7;;;11.5;;
77748;SDS011;66938;52.084;5.228;2023-06-24T05:07:38;12.1;;;11.0;;
77748;SDS011;66938;52.084;5.228;2023-06-24T05:09:14;12.5;;;11.3;;
77748;SDS011;66938;52.084;5.228;2023-06-24T05:10:50;11.9;;;10.9;;
77748;SDS011;66938;52.084;5.228;2023-06-24T05:14:02;11.6;;;10.5;;
77748;SDS011;66938;52.084;5.228;2023-06-24T05:15:38;12.2;;;11.0;;
77748;SDS011;66938;52.084;5.228;2023-06-24T05:17:14;11.7;;;10.6;;
77748;SDS011;66938;52.084;5.228;2023-06-24T05:20:27;11.5;;;10.4;;
77748;SDS011;66938;52.084;5.228;2023-06-24T05:22:04;11.5;;;10.4;;
77748;SDS011;66938;52.084;5.228;2023-06-24T05:23:40;11.5;;;10.4;;
77748;SDS011;66938;52.084;5.228;2023-06-24T05:25:16;11.3;;;10.21;;
77748;SDS011;66938;52.084;5.228;2023-06-24T05:28:28;10.9;;;9.71;;
77748;SDS011;66938;52.084;5.228;2023-06-24T05:30:05;13.4;;;11.4;;
77748;SDS011;66938;52.084;5.228;2023-06-24T05:31:43;10.6;;;9.5;;
77748;SDS011;66938;52.084;5.228;2023-06-24T05:34:56;10.5;;;9.5;;
77748;SDS011;66938;52.084;5.228;2023-06-24T05:36:32;11.3;;;10.21;;
77748;SDS011;66938;52.084;5.228;2023-06-24T05:38:08;10.8;;;9.71;;
77748;SDS011;66938;52.084;5.228;2023-06-24T05:41:20;10.6;;;9.6;;
77748;SDS011;66938;52.084;5.228;2023-06-24T05:42:57;10.21;;;9.21;;
77748;SDS011;66938;52.084;5.228;2023-06-24T05:44:33;10.6;;;9.6;;
77748;SDS011;66938;52.084;5.228;2023-06-24T05:46:09;9.5;;;8.5;;
77748;SDS011;66938;52.084;5.228;2023-06-24T05:49:21;10.5;;;9.5;;
77748;SDS011;66938;52.084;5.228;2023-06-24T05:50:57;11.7;;;10.5;;
77748;SDS011;66938;52.084;5.228;2023-06-24T05:52:33;10.3;;;9.21;;
77748;SDS011;66938;52.084;5.228;2023-06-24T05:55:46;10.3;;;9.21;;
77748;SDS011;66938;52.084;5.228;2023-06-24T05:57:22;11.0;;;9.81;;
77748;SDS011;66938;52.084;5.228;2023-06-24T05:58:58;11.9;;;10.0;;
77748;SDS011;66938;52.084;5.228;2023-06-24T06:02:10;11.8;;;9.81;;
77748;SDS011;66938;52.084;5.228;2023-06-24T06:03:46;10.5;;;9.5;;
77748;SDS011;66938;52.084;5.228;2023-06-24T06:05:22;10.8;;;8.9;;
77748;SDS011;66938;52.084;5.228;2023-06-24T06:08:34;9.4;;;8.5;;
77748;SDS011;66938;52.084;5.228;2023-06-24T06:10:10;9.71;;;8.81;;
77748;SDS011;66938;52.084;5.228;2023-06-24T06:11:46;9.6;;;8.6;;
77748;SDS011;66938;52.084;5.228;2023-06-24T06:13:22;9.6;;;8.6;;
77748;SDS011;66938;52.084;5.228;2023-06-24T06:16:35;9.0;;;8.1;;
77748;SDS011;66938;52.084;5.228;2023-06-24T06:18:12;9.1;;;8.2;;
77748;SDS011;66938;52.084;5.228;2023-06-24T06:19:48;9.1;;;8.2;;
77748;SDS011;66938;52.084;5.228;2023-06-24T06:23:00;8.6;;;7.7;;
77748;SDS011;66938;52.084;5.228;2023-06-24T06:24:36;10.21;;;8.71;;
77748;SDS011;66938;52.084;5.228;2023-06-24T06:26:12;9.9;;;8.1;;
77748;SDS011;66938;52.084;5.228;2023-06-24T06:29:24;8.1;;;7.1;;
77748;SDS011;66938;52.084;5.228;2023-06-24T06:31:01;7.9;;;7.1;;
77748;SDS011;66938;52.084;5.228;2023-06-24T06:32:37;8.1;;;6.6;;
77748;SDS011;66938;52.084;5.228;2023-06-24T06:34:13;7.6;;;6.8;;
77748;SDS011;66938;52.084;5.228;2023-06-24T06:37:25;8.5;;;7.0;;
77748;SDS011;66938;52.084;5.228;2023-06-24T06:39:01;8.5;;;7.0;;
77748;SDS011;66938;52.084;5.228;2023-06-24T06:40:37;7.9;;;7.1;;
77748;SDS011;66938;52.084;5.228;2023-06-24T06:43:52;8.31;;;6.5;;
77748;SDS011;66938;52.084;5.228;2023-06-24T06:45:29;8.2;;;7.4;;
77748;SDS011;66938;52.084;5.228;2023-06-24T06:47:05;8.4;;;7.6;;
77748;SDS011;66938;52.084;5.228;2023-06-24T06:50:18;9.0;;;7.6;;
77748;SDS011;66938;52.084;5.228;2023-06-24T06:51:54;9.71;;;7.6;;
77748;SDS011;66938;52.084;5.228;2023-06-24T06:53:30;9.21;;;7.1;;
77748;SDS011;66938;52.084;5.228;2023-06-24T06:56:45;7.8;;;6.6;;
77748;SDS011;66938;52.084;5.228;2023-06-24T06:58:21;7.9;;;7.1;;
77748;SDS011;66938;52.084;5.228;2023-06-24T06:59:57;8.6;;;7.0;;
77748;SDS011;66938;52.084;5.228;2023-06-24T07:01:33;7.8;;;7.0;;
77748;SDS011;66938;52.084;5.228;2023-06-24T07:04:45;8.4;;;7.3;;
77748;SDS011;66938;52.084;5.228;2023-06-24T07:06:21;8.6;;;7.2;;
77748;SDS011;66938;52.084;5.228;2023-06-24T07:07:58;8.31;;;6.8;;
77748;SDS011;66938;52.084;5.228;2023-06-24T07:11:10;8.5;;;6.7;;
77748;SDS011;66938;52.084;5.228;2023-06-24T07:12:46;8.5;;;6.7;;
77748;SDS011;66938;52.084;5.228;2023-06-24T07:14:22;8.1;;;7.3;;
77748;SDS011;66938;52.084;5.228;2023-06-24T07:17:34;9.0;;;7.8;;
77748;SDS011;66938;52.084;5.228;2023-06-24T07:19:11;8.4;;;7.5;;
77748;SDS011;66938;52.084;5.228;2023-06-24T07:20:47;8.2;;;7.4;;
77748;SDS011;66938;52.084;5.228;2023-06-24T07:22:23;8.1;;;7.1;;
77748;SDS011;66938;52.084;5.228;2023-06-24T07:25:35;7.6;;;6.9;;
77748;SDS011;66938;52.084;5.228;2023-06-24T07:27:11;7.7;;;6.8;;
77748;SDS011;66938;52.084;5.228;2023-06-24T07:28:47;8.6;;;7.7;;
77748;SDS011;66938;52.084;5.228;2023-06-24T07:32:00;6.7;;;6.1;;
77748;SDS011;66938;52.084;5.228;2023-06-24T07:33:36;9.4;;;6.3;;
77748;SDS011;66938;52.084;5.228;2023-06-24T07:35:12;7.6;;;6.1;;
77748;SDS011;66938;52.084;5.228;2023-06-24T07:38:24;7.0;;;5.7;;
77748;SDS011;66938;52.084;5.228;2023-06-24T07:40:00;6.6;;;5.9;;
77748;SDS011;66938;52.084;5.228;2023-06-24T07:41:37;7.8;;;5.6;;
77748;SDS011;66938;52.084;5.228;2023-06-24T07:44:49;8.2;;;5.9;;
77748;SDS011;66938;52.084;5.228;2023-06-24T07:46:25;6.8;;;5.8;;
77748;SDS011;66938;52.084;5.228;2023-06-24T07:48:01;7.0;;;6.1;;
77748;SDS011;66938;52.084;5.228;2023-06-24T07:49:37;7.1;;;6.1;;
77748;SDS011;66938;52.084;5.228;2023-06-24T07:52:50;7.2;;;6.4;;
77748;SDS011;66938;52.084;5.228;2023-06-24T07:54:26;7.8;;;7.0;;
77748;SDS011;66938;52.084;5.228;2023-06-24T07:56:02;6.9;;;6.1;;
77748;SDS011;66938;52.084;5.228;2023-06-24T07:59:15;6.4;;;5.7;;
77748;SDS011;66938;52.084;5.228;2023-06-24T08:00:51;6.4;;;5.7;;
77748;SDS011;66938;52.084;5.228;2023-06-24T08:02:27;6.3;;;5.7;;
77748;SDS011;66938;52.084;5.228;2023-06-24T08:05:39;5.6;;;4.7;;
77748;SDS011;66938;52.084;5.228;2023-06-24T08:07:16;6.5;;;5.5;;
77748;SDS011;66938;52.084;5.228;2023-06-24T08:08:52;7.4;;;6.3;;
77748;SDS011;66938;52.084;5.228;2023-06-24T08:10:28;6.6;;;5.5;;
77748;SDS011;66938;52.084;5.228;2023-06-24T08:13:41;6.0;;;5.11;;
77748;SDS011;66938;52.084;5.228;2023-06-24T08:15:17;7.6;;;6.2;;
77748;SDS011;66938;52.084;5.228;2023-06-24T08:16:54;7.8;;;6.5;;
77748;SDS011;66938;52.084;5.228;2023-06-24T08:20:06;6.9;;;6.2;;
77748;SDS011;66938;52.084;5.228;2023-06-24T08:21:43;8.31;;;6.7;;
77748;SDS011;66938;52.084;5.228;2023-06-24T08:23:19;8.2;;;7.4;;
77748;SDS011;66938;52.084;5.228;2023-06-24T08:26:31;7.3;;;6.6;;
77748;SDS011;66938;52.084;5.228;2023-06-24T08:28:07;8.2;;;7.4;;
77748;SDS011;66938;52.084;5.228;2023-06-24T08:29:44;7.3;;;6.1;;
77748;SDS011;66938;52.084;5.228;2023-06-24T08:32:56;7.2;;;6.5;;
77748;SDS011;66938;52.084;5.228;2023-06-24T08:34:32;8.31;;;7.5;;
77748;SDS011;66938;52.084;5.228;2023-06-24T08:36:08;8.5;;;7.4;;
77748;SDS011;66938;52.084;5.228;2023-06-24T08:37:44;7.9;;;7.2;;
77748;SDS011;66938;52.084;5.228;2023-06-24T08:40:57;10.0;;;7.0;;
77748;SDS011;66938;52.084;5.228;2023-06-24T08:42:34;7.2;;;6.5;;
77748;SDS011;66938;52.084;5.228;2023-06-24T08:44:10;7.2;;;6.5;;
77748;SDS011;66938;52.084;5.228;2023-06-24T08:47:23;7.0;;;6.3;;
77748;SDS011;66938;52.084;5.228;2023-06-24T08:49:02;6.9;;;5.6;;
77748;SDS011;66938;52.084;5.228;2023-06-24T08:50:51;6.7;;;6.0;;
77748;SDS011;66938;52.084;5.228;2023-06-24T08:52:34;7.3;;;6.6;;
77748;SDS011;66938;52.084;5.228;2023-06-24T08:55:50;7.4;;;6.7;;
77748;SDS011;66938;52.084;5.228;2023-06-24T08:57:29;7.3;;;6.6;;
77748;SDS011;66938;52.084;5.228;2023-06-24T08:59:05;8.1;;;6.6;;
77748;SDS011;66938;52.084;5.228;2023-06-24T09:00:42;7.8;;;6.8;;
77748;SDS011;66938;52.084;5.228;2023-06-24T09:03:55;7.5;;;6.7;;
77748;SDS011;66938;52.084;5.228;2023-06-24T09:05:31;8.5;;;7.6;;
77748;SDS011;66938;52.084;5.228;2023-06-24T09:07:07;7.9;;;7.1;;
77748;SDS011;66938;52.084;5.228;2023-06-24T09:10:29;8.2;;;7.4;;
77748;SDS011;66938;52.084;5.228;2023-06-24T09:12:08;9.0;;;7.9;;
77748;SDS011;66938;52.084;5.228;2023-06-24T09:13:47;7.9;;;6.7;;
77748;SDS011;66938;52.084;5.228;2023-06-24T09:15:23;7.8;;;6.6;;
77748;SDS011;66938;52.084;5.228;2023-06-24T09:18:36;7.9;;;7.1;;
77748;SDS011;66938;52.084;5.228;2023-06-24T09:20:12;8.1;;;7.1;;
77748;SDS011;66938;52.084;5.228;2023-06-24T09:21:48;7.9;;;6.6;;
77748;SDS011;66938;52.084;5.228;2023-06-24T09:25:02;6.9;;;6.2;;
77748;SDS011;66938;52.084;5.228;2023-06-24T09:26:38;8.71;;;7.9;;
77748;SDS011;66938;52.084;5.228;2023-06-24T09:28:14;9.4;;;8.5;;
77748;SDS011;66938;52.084;5.228;2023-06-24T09:31:27;9.9;;;8.9;;
77748;SDS011;66938;52.084;5.228;2023-06-24T09:33:03;8.4;;;7.6;;
77748;SDS011;66938;52.084;5.228;2023-06-24T09:34:39;8.4;;;7.6;;
77748;SDS011;66938;52.084;5.228;2023-06-24T09:36:16;9.1;;;8.1;;
77748;SDS011;66938;52.084;5.228;2023-06-24T09:39:34;9.31;;;8.4;;
77748;SDS011;66938;52.084;5.228;2023-06-24T09:41:13;9.31;;;8.4;;
77748;SDS011;66938;52.084;5.228;2023-06-24T09:42:51;9.5;;;8.4;;
77748;SDS011;66938;52.084;5.228;2023-06-24T09:46:06;8.71;;;7.8;;
77748;SDS011;66938;52.084;5.228;2023-06-24T09:47:43;8.81;;;7.5;;
77748;SDS011;66938;52.084;5.228;2023-06-24T09:49:19;9.1;;;8.2;;
77748;SDS011;66938;52.084;5.228;2023-06-24T09:50:55;9.5;;;8.0;;
77748;SDS011;66938;52.084;5.228;2023-06-24T09:54:12;9.5;;;8.1;;
77748;SDS011;66938;52.084;5.228;2023-06-24T09:55:50;8.71;;;7.8;;
77748;SDS011;66938;52.084;5.228;2023-06-24T09:57:27;7.6;;;6.8;;
77748;SDS011;66938;52.084;5.228;2023-06-24T10:00:45;9.81;;;7.2;;
77748;SDS011;66938;52.084;5.228;2023-06-24T10:02:22;8.5;;;7.7;;
77748;SDS011;66938;52.084;5.228;2023-06-24T10:03:59;8.2;;;7.4;;
77748;SDS011;66938;52.084;5.228;2023-06-24T10:05:37;8.5;;;7.4;;
77748;SDS011;66938;52.084;5.228;2023-06-24T10:08:51;8.9;;;6.9;;
77748;SDS011;66938;52.084;5.228;2023-06-24T10:10:28;8.9;;;8.0;;
77748;SDS011;66938;52.084;5.228;2023-06-24T10:12:04;10.5;;;9.31;;
77748;SDS011;66938;52.084;5.228;2023-06-24T10:15:17;8.5;;;7.2;;
77748;SDS011;66938;52.084;5.228;2023-06-24T10:17:01;8.6;;;7.8;;
77748;SDS011;66938;52.084;5.228;2023-06-24T10:18:38;7.8;;;7.0;;
77748;SDS011;66938;52.084;5.228;2023-06-24T10:20:23;8.71;;;7.8;;
77748;SDS011;66938;52.084;5.228;2023-06-24T10:23:39;8.5;;;7.7;;
77748;SDS011;66938;52.084;5.228;2023-06-24T10:25:17;9.6;;;7.4;;
77748;SDS011;66938;52.084;5.228;2023-06-24T10:26:53;7.6;;;6.7;;
77748;SDS011;66938;52.084;5.228;2023-06-24T10:30:53;8.71;;;7.8;;
77748;SDS011;66938;52.084;5.228;2023-06-24T10:34:20;9.21;;;8.31;;
77748;SDS011;66938;52.084;5.228;2023-06-24T10:36:00;8.31;;;6.5;;
77748;SDS011;66938;52.084;5.228;2023-06-24T10:37:36;7.4;;;6.7;;
77748;SDS011;66938;52.084;5.228;2023-06-24T10:39:32;7.7;;;6.9;;
77748;SDS011;66938;52.084;5.228;2023-06-24T10:41:15;8.6;;;7.8;;
77748;SDS011;66938;52.084;5.228;2023-06-24T10:44:28;8.31;;;6.6;;
77748;SDS011;66938;52.084;5.228;2023-06-24T10:46:06;8.71;;;7.7;;
77748;SDS011;66938;52.084;5.228;2023-06-24T10:47:51;10.1;;;8.81;;
77748;SDS011;66938;52.084;5.228;2023-06-24T10:49:28;10.5;;;9.4;;
77748;SDS011;66938;52.084;5.228;2023-06-24T10:52:41;10.8;;;9.71;;
77748;SDS011;66938;52.084;5.228;2023-06-24T10:54:18;9.6;;;8.4;;
77748;SDS011;66938;52.084;5.228;2023-06-24T10:55:56;8.5;;;7.6;;
77748;SDS011;66938;52.084;5.228;2023-06-24T10:59:10;8.6;;;7.8;;
77748;SDS011;66938;52.084;5.228;2023-06-24T11:00:46;9.21;;;8.31;;
77748;SDS011;66938;52.084;5.228;2023-06-24T11:02:22;11.7;;;10.5;;
77748;SDS011;66938;52.084;5.228;2023-06-24T11:05:41;11.5;;;10.1;;
77748;SDS011;66938;52.084;5.228;2023-06-24T11:07:20;13.6;;;9.31;;
77748;SDS011;66938;52.084;5.228;2023-06-24T11:09:01;10.8;;;9.6;;
77748;SDS011;66938;52.084;5.228;2023-06-24T11:10:45;10.9;;;9.81;;
77748;SDS011;66938;52.084;5.228;2023-06-24T11:14:02;11.7;;;10.6;;
77748;SDS011;66938;52.084;5.228;2023-06-24T11:15:38;12.0;;;10.8;;
77748;SDS011;66938;52.084;5.228;2023-06-24T11:17:15;10.8;;;9.71;;
77748;SDS011;66938;52.084;5.228;2023-06-24T11:18:51;9.81;;;8.81;;
77748;SDS011;66938;52.084;5.228;2023-06-24T11:22:04;11.1;;;10.0;;
77748;SDS011;66938;52.084;5.228;2023-06-24T11:23:41;11.1;;;10.0;;
77748;SDS011;66938;52.084;5.228;2023-06-24T11:25:18;9.6;;;8.6;;
77748;SDS011;66938;52.084;5.228;2023-06-24T11:28:32;9.81;;;8.81;;
77748;SDS011;66938;52.084;5.228;2023-06-24T11:30:08;9.21;;;8.31;;
77748;SDS011;66938;52.084;5.228;2023-06-24T11:31:46;9.0;;;8.1;;
77748;SDS011;66938;52.084;5.228;2023-06-24T11:33:26;8.6;;;7.7;;
77748;SDS011;66938;52.084;5.228;2023-06-24T11:36:40;9.81;;;7.6;;
77748;SDS011;66938;52.084;5.228;2023-06-24T11:38:16;9.6;;;8.5;;
77748;SDS011;66938;52.084;5.228;2023-06-24T11:40:00;10.0;;;8.31;;
77748;SDS011;66938;52.084;5.228;2023-06-24T11:43:14;8.5;;;7.6;;
77748;SDS011;66938;52.084;5.228;2023-06-24T11:44:50;9.6;;;8.1;;
77748;SDS011;66938;52.084;5.228;2023-06-24T11:46:27;10.1;;;9.1;;
77748;SDS011;66938;52.084;5.228;2023-06-24T11:48:05;8.9;;;7.6;;
77748;SDS011;66938;52.084;5.228;2023-06-24T11:51:26;8.4;;;7.6;;
77748;SDS011;66938;52.084;5.228;2023-06-24T11:53:02;7.9;;;7.1;;
77748;SDS011;66938;52.084;5.228;2023-06-24T11:54:40;8.4;;;7.6;;
77748;SDS011;66938;52.084;5.228;2023-06-24T11:57:55;7.6;;;6.5;;
77748;SDS011;66938;52.084;5.228;2023-06-24T11:59:34;6.7;;;5.6;;
77748;SDS011;66938;52.084;5.228;2023-06-24T12:01:10;6.3;;;5.5;;
77748;SDS011;66938;52.084;5.228;2023-06-24T12:02:48;6.3;;;5.5;;
77748;SDS011;66938;52.084;5.228;2023-06-24T12:06:04;7.7;;;6.3;;
77748;SDS011;66938;52.084;5.228;2023-06-24T12:07:40;7.9;;;6.2;;
77748;SDS011;66938;52.084;5.228;2023-06-24T12:09:17;8.71;;;6.4;;
77748;SDS011;66938;52.084;5.228;2023-06-24T12:12:29;6.1;;;5.5;;
77748;SDS011;66938;52.084;5.228;2023-06-24T12:14:05;6.9;;;5.7;;
77748;SDS011;66938;52.084;5.228;2023-06-24T12:15:41;7.1;;;5.2;;
77748;SDS011;66938;52.084;5.228;2023-06-24T12:17:17;7.5;;;5.6;;
77748;SDS011;66938;52.084;5.228;2023-06-24T12:20:30;5.8;;;5.2;;
77748;SDS011;66938;52.084;5.228;2023-06-24T12:22:07;5.8;;;5.11;;
77748;SDS011;66938;52.084;5.228;2023-06-24T12:23:43;6.4;;;5.6;;
77748;SDS011;66938;52.084;5.228;2023-06-24T12:26:56;6.0;;;5.4;;
77748;SDS011;66938;52.084;5.228;2023-06-24T12:28:32;6.1;;;5.11;;
77748;SDS011;66938;52.084;5.228;2023-06-24T12:30:09;7.4;;;5.6;;
77748;SDS011;66938;52.084;5.228;2023-06-24T12:33:22;5.9;;;4.91;;
77748;SDS011;66938;52.084;5.228;2023-06-24T12:34:58;5.8;;;5.0;;
77748;SDS011;66938;52.084;5.228;2023-06-24T12:36:34;7.9;;;6.3;;
77748;SDS011;66938;52.084;5.228;2023-06-24T12:39:46;7.1;;;6.4;;
77748;SDS011;66938;52.084;5.228;2023-06-24T12:41:22;7.0;;;5.5;;
77748;SDS011;66938;52.084;5.228;2023-06-24T12:42:59;8.31;;;6.0;;
77748;SDS011;66938;52.084;5.228;2023-06-24T12:44:35;5.9;;;5.3;;
77748;SDS011;66938;52.084;5.228;2023-06-24T12:47:47;8.81;;;5.8;;
77748;SDS011;66938;52.084;5.228;2023-06-24T12:49:23;7.6;;;5.9;;
77748;SDS011;66938;52.084;5.228;2023-06-24T12:50:59;7.5;;;5.7;;